createdAt,value
2022-07-28T00:00:08.572Z,49.94
2022-07-28T00:02:36.368Z,49.58
2022-07-28T00:05:04.332Z,50.38
2022-07-28T00:07:31.273Z,50.78
2022-07-28T00:10:00.512Z,51.41
2022-07-28T00:12:28.024Z,51.25
2022-07-28T00:14:55.067Z,51.20
2022-07-28T00:17:25.715Z,51.22
2022-07-28T00:19:52.694Z,51.23
2022-07-28T00:22:19.905Z,51.65
2022-07-28T00:24:46.898Z,51.78
2022-07-28T00:27:19.259Z,52.35
2022-07-28T00:29:50.186Z,52.11
2022-07-28T00:32:19.128Z,52.50
2022-07-28T00:34:47.053Z,52.72
2022-07-28T00:37:14.821Z,52.20
2022-07-28T00:39:42.885Z,52.38
2022-07-28T00:42:10.398Z,52.11
2022-07-28T00:44:39.196Z,52.08
2022-07-28T00:47:06.300Z,52.37
2022-07-28T00:49:33.485Z,52.15
2022-07-28T00:52:01.032Z,52.45
2022-07-28T00:54:28.002Z,52.57
2022-07-28T00:56:54.864Z,52.92
2022-07-28T00:59:21.780Z,52.92
2022-07-28T01:01:49.303Z,53.59
2022-07-28T01:04:17.062Z,54.05
2022-07-28T01:07:21.927Z,54.79
2022-07-28T01:09:58.753Z,54.33
2022-07-28T01:13:05.812Z,54.42
2022-07-28T01:15:44.554Z,55.16
2022-07-28T01:18:24.737Z,55.13
2022-07-28T01:20:55.105Z,55.52
2022-07-28T01:23:51.107Z,55.42
2022-07-28T01:26:58.848Z,55.76
2022-07-28T01:29:40.680Z,55.89
2022-07-28T01:32:20.944Z,55.78
2022-07-28T01:35:32.801Z,55.94
2022-07-28T01:38:05.431Z,56.48
2022-07-28T01:40:35.727Z,55.94
2022-07-28T01:43:08.409Z,55.80
2022-07-28T01:45:38.436Z,56.33
2022-07-28T01:48:06.832Z,55.86
2022-07-28T01:50:36.262Z,56.32
2022-07-28T01:53:03.884Z,56.29
2022-07-28T01:55:32.874Z,56.56
2022-07-28T01:58:02.201Z,56.64
2022-07-28T02:00:30.024Z,57.05
2022-07-28T02:02:58.115Z,57.06
2022-07-28T02:05:26.626Z,57.52
2022-07-28T02:07:55.405Z,57.70
2022-07-28T02:10:23.915Z,57.84
2022-07-28T02:12:53.056Z,57.75
2022-07-28T02:15:21.732Z,57.70
2022-07-28T02:17:51.885Z,58.09
2022-07-28T02:20:19.866Z,57.98
2022-07-28T02:22:51.150Z,57.81
2022-07-28T02:25:20.546Z,57.76
2022-07-28T02:27:57.082Z,58.11
2022-07-28T02:30:34.456Z,58.96
2022-07-28T02:33:11.506Z,59.11
2022-07-28T02:36:00.669Z,59.22
2022-07-28T02:38:30.459Z,59.79
2022-07-28T02:41:03.765Z,59.50
2022-07-28T02:43:50.472Z,59.72
2022-07-28T02:46:22.204Z,59.75
2022-07-28T02:48:52.690Z,60.25
2022-07-28T02:51:23.519Z,59.77
2022-07-28T02:53:51.896Z,59.78
2022-07-28T02:56:19.535Z,59.89
2022-07-28T02:58:47.089Z,59.69
2022-07-28T03:01:20.873Z,59.73
2022-07-28T03:03:49.348Z,59.85
2022-07-28T03:06:18.088Z,60.12
2022-07-28T03:08:45.238Z,60.09
2022-07-28T03:11:14.171Z,60.38
2022-07-28T03:13:41.213Z,60.43
2022-07-28T03:16:08.991Z,60.49
2022-07-28T03:18:35.994Z,60.76
2022-07-28T03:21:02.942Z,61.50
2022-07-28T03:23:37.045Z,61.29
2022-07-28T03:26:15.444Z,60.80
2022-07-28T03:28:43.909Z,60.87
2022-07-28T03:31:13.917Z,61.82
2022-07-28T03:33:41.738Z,61.93
2022-07-28T03:36:13.729Z,61.83
2022-07-28T03:38:57.747Z,62.50
2022-07-28T03:41:26.906Z,63.36
2022-07-28T03:43:55.071Z,62.81
2022-07-28T03:46:23.408Z,63.30
2022-07-28T03:48:50.457Z,63.95
2022-07-28T03:51:17.354Z,64.03
2022-07-28T03:53:44.757Z,64.19
2022-07-28T03:56:11.708Z,64.74
2022-07-28T03:58:38.861Z,64.43
2022-07-28T04:01:05.736Z,65.19
2022-07-28T04:03:42.999Z,64.77
2022-07-28T04:06:15.450Z,65.97
2022-07-28T04:08:43.544Z,65.80
2022-07-28T04:11:10.595Z,65.15
2022-07-28T04:13:37.606Z,65.95
2022-07-28T04:16:05.644Z,65.81
2022-07-28T04:18:33.033Z,65.39
2022-07-28T04:20:59.906Z,65.34
2022-07-28T04:23:26.882Z,65.51
2022-07-28T04:25:53.836Z,64.63
2022-07-28T04:28:20.936Z,64.61
2022-07-28T04:30:47.997Z,65.10
2022-07-28T04:33:14.914Z,64.37
2022-07-28T04:35:41.827Z,64.92
2022-07-28T04:38:08.679Z,64.15
2022-07-28T04:40:35.666Z,64.01
2022-07-28T04:43:04.050Z,64.25
2022-07-28T04:45:31.119Z,64.31
2022-07-28T04:47:58.079Z,64.63
2022-07-28T04:50:25.116Z,64.57
2022-07-28T04:52:51.978Z,64.35
2022-07-28T04:55:18.986Z,64.23
2022-07-28T04:57:46.229Z,64.44
2022-07-28T05:00:14.463Z,64.13
2022-07-28T05:02:42.770Z,63.69
2022-07-28T05:05:10.276Z,63.12
2022-07-28T05:07:38.694Z,62.76
2022-07-28T05:10:07.529Z,62.72
2022-07-28T05:12:38.692Z,62.40
2022-07-28T05:15:06.385Z,62.16
2022-07-28T05:17:33.756Z,61.61
2022-07-28T05:20:00.743Z,61.67
2022-07-28T05:22:44.723Z,61.80
2022-07-28T05:25:15.960Z,61.91
2022-07-28T05:27:43.202Z,61.97
2022-07-28T05:30:11.426Z,61.45
2022-07-28T05:32:38.628Z,61.22
2022-07-28T05:35:06.300Z,61.25
2022-07-28T05:37:37.306Z,61.44
2022-07-28T05:40:09.842Z,61.34
2022-07-28T05:42:37.077Z,61.11
2022-07-28T05:45:16.659Z,60.62
2022-07-28T05:47:49.043Z,59.96
2022-07-28T05:50:20.303Z,60.04
2022-07-28T05:52:48.267Z,59.53
2022-07-28T05:55:16.014Z,59.22
2022-07-28T05:57:43.070Z,58.94
2022-07-28T06:00:16.139Z,59.16
2022-07-28T06:02:49.266Z,58.41
2022-07-28T06:05:21.547Z,57.87
2022-07-28T06:07:50.533Z,57.88
2022-07-28T06:10:20.932Z,57.76
2022-07-28T06:12:54.351Z,57.49
2022-07-28T06:15:23.988Z,56.97
2022-07-28T06:17:52.758Z,56.27
2022-07-28T06:20:21.575Z,56.25
2022-07-28T06:22:54.099Z,56.13
2022-07-28T06:25:24.175Z,56.41
2022-07-28T06:27:53.612Z,56.01
2022-07-28T06:30:21.595Z,55.68
2022-07-28T06:32:49.029Z,55.33
2022-07-28T06:35:16.872Z,55.41
2022-07-28T06:37:48.323Z,54.66
2022-07-28T06:40:17.054Z,54.70
2022-07-28T06:42:45.085Z,54.36
2022-07-28T06:45:20.710Z,52.92
2022-07-28T06:47:50.083Z,52.81
2022-07-28T06:50:25.730Z,53.33
2022-07-28T06:52:55.950Z,53.66
2022-07-28T06:55:23.071Z,53.31
2022-07-28T06:57:50.177Z,52.81
2022-07-28T07:00:17.403Z,52.16
2022-07-28T07:02:44.319Z,51.80
2022-07-28T07:05:12.726Z,50.68
2022-07-28T07:07:43.398Z,51.00
2022-07-28T07:10:11.853Z,50.63
2022-07-28T07:12:38.825Z,51.00
2022-07-28T07:15:06.792Z,50.02
2022-07-28T07:17:33.844Z,49.72
2022-07-28T07:20:00.759Z,48.90
2022-07-28T07:22:27.709Z,48.14
2022-07-28T07:24:57.060Z,47.61
2022-07-28T07:27:25.133Z,46.81
2022-07-28T07:29:52.003Z,46.06
2022-07-28T07:32:18.978Z,44.39
2022-07-28T07:34:45.985Z,44.63
2022-07-28T07:37:14.688Z,44.54
2022-07-28T07:39:42.250Z,44.73
2022-07-28T07:42:09.373Z,45.57
2022-07-28T07:44:36.277Z,45.92
2022-07-28T07:47:03.891Z,45.78
2022-07-28T07:49:42.331Z,44.70
2022-07-28T07:52:12.770Z,44.42
2022-07-28T07:54:39.707Z,43.71
2022-07-28T07:57:06.682Z,43.88
2022-07-28T07:59:33.753Z,43.40
2022-07-28T08:02:01.432Z,42.82
2022-07-28T08:04:28.809Z,42.70
2022-07-28T08:06:56.212Z,42.53
2022-07-28T08:09:23.580Z,42.31
2022-07-28T08:11:50.517Z,42.41
2022-07-28T08:14:18.130Z,42.08
2022-07-28T08:16:45.334Z,41.80
2022-07-28T08:19:12.551Z,40.47
2022-07-28T08:21:39.631Z,40.18
2022-07-28T08:24:07.117Z,40.49
2022-07-28T08:26:34.025Z,40.19
2022-07-28T08:29:01.034Z,39.59
2022-07-28T08:31:28.054Z,39.46
2022-07-28T08:33:55.648Z,38.85
2022-07-28T08:36:22.840Z,38.68
2022-07-28T08:38:50.181Z,38.25
2022-07-28T08:41:22.827Z,37.24
2022-07-28T08:43:52.418Z,36.67
2022-07-28T08:46:21.832Z,35.99
2022-07-28T08:48:51.093Z,36.84
2022-07-28T08:51:19.038Z,37.01
2022-07-28T08:53:46.799Z,37.26
2022-07-28T08:56:17.445Z,36.31
2022-07-28T08:58:44.448Z,35.25
2022-07-28T09:01:12.175Z,34.98
2022-07-28T09:03:39.755Z,34.39
2022-07-28T09:06:07.814Z,33.95
2022-07-28T09:08:34.913Z,33.15
2022-07-28T09:11:02.544Z,31.73
2022-07-28T09:13:29.633Z,31.52
2022-07-28T09:15:56.661Z,30.29
2022-07-28T09:18:23.624Z,31.71
2022-07-28T09:20:50.665Z,30.57
2022-07-28T09:23:43.375Z,28.72
2022-07-28T09:26:11.244Z,28.17
2022-07-28T09:29:00.650Z,27.92
2022-07-28T09:31:29.201Z,27.15
2022-07-28T09:34:01.686Z,26.28
2022-07-28T09:36:30.999Z,26.85
2022-07-28T09:38:59.271Z,26.39
2022-07-28T09:41:26.208Z,26.52
2022-07-28T09:43:55.312Z,25.18
2022-07-28T09:46:26.382Z,24.75
2022-07-28T09:48:59.561Z,23.95
2022-07-28T09:51:31.455Z,23.92
2022-07-28T09:54:18.964Z,24.74
2022-07-28T09:56:46.544Z,25.30
2022-07-28T09:59:15.024Z,24.78
2022-07-28T10:01:58.337Z,24.72
2022-07-28T10:04:38.622Z,24.40
2022-07-28T10:07:17.106Z,24.43
2022-07-28T10:09:57.564Z,25.16
2022-07-28T10:12:30.646Z,25.54
2022-07-28T10:14:59.720Z,24.39
2022-07-28T10:17:32.419Z,23.40
2022-07-28T10:20:01.854Z,22.68
2022-07-28T10:22:33.802Z,21.51
2022-07-28T10:25:12.741Z,21.87
2022-07-28T10:27:42.221Z,22.16
2022-07-28T10:30:10.031Z,21.20
2022-07-28T10:32:46.381Z,21.85
2022-07-28T10:35:15.461Z,21.03
2022-07-28T10:38:00.896Z,20.97
2022-07-28T10:40:30.290Z,20.69
2022-07-28T10:42:58.778Z,21.54
2022-07-28T10:45:47.875Z,21.59
2022-07-28T10:48:15.483Z,22.00
2022-07-28T10:50:44.580Z,20.57
2022-07-28T10:53:19.450Z,21.47
2022-07-28T10:55:50.776Z,20.91
2022-07-28T10:58:29.789Z,21.98
2022-07-28T11:01:02.205Z,21.94
2022-07-28T11:03:47.702Z,22.50
2022-07-28T11:06:30.970Z,22.34
2022-07-28T11:09:00.943Z,22.17
2022-07-28T11:11:55.674Z,20.65
2022-07-28T11:14:29.786Z,20.32
2022-07-28T11:17:10.644Z,20.51
2022-07-28T11:19:55.709Z,19.58
2022-07-28T11:22:34.031Z,19.67
2022-07-28T11:25:19.044Z,20.20
2022-07-28T11:27:50.601Z,19.54
2022-07-28T11:30:33.715Z,18.57
2022-07-28T11:33:01.948Z,17.85
2022-07-28T11:35:31.234Z,18.87
2022-07-28T11:38:01.548Z,19.15
2022-07-28T11:40:32.531Z,17.93
2022-07-28T11:43:28.620Z,18.64
2022-07-28T11:46:07.822Z,19.49
2022-07-28T11:48:39.548Z,19.95
2022-07-28T11:51:06.456Z,18.63
2022-07-28T11:53:48.163Z,17.62
2022-07-28T11:56:25.632Z,16.71
2022-07-28T11:59:05.039Z,17.90
2022-07-28T12:01:36.867Z,18.36
2022-07-28T12:04:14.879Z,18.10
2022-07-28T12:06:43.087Z,17.36
2022-07-28T12:09:11.426Z,18.14
2022-07-28T12:11:44.097Z,18.21
2022-07-28T12:14:16.781Z,18.62
2022-07-28T12:16:49.862Z,17.77
2022-07-28T12:19:18.881Z,16.71
2022-07-28T12:21:51.364Z,16.26
2022-07-28T12:24:29.874Z,16.17
2022-07-28T12:26:58.004Z,15.67
2022-07-28T12:29:32.281Z,15.20
2022-07-28T12:32:05.375Z,15.40
2022-07-28T12:34:35.363Z,15.18
2022-07-28T12:37:05.109Z,14.85
2022-07-28T12:39:39.687Z,14.12
2022-07-28T12:42:08.986Z,14.01
2022-07-28T12:44:51.413Z,13.27
2022-07-28T12:47:28.170Z,13.20
2022-07-28T12:50:16.163Z,14.33
2022-07-28T12:52:45.872Z,13.57
2022-07-28T12:55:30.838Z,13.98
2022-07-28T12:57:58.370Z,16.87
2022-07-28T13:00:28.307Z,18.45
2022-07-28T13:02:57.334Z,18.93
2022-07-28T13:05:58.245Z,18.91
2022-07-28T13:08:27.501Z,17.56
2022-07-28T13:10:58.621Z,17.14
2022-07-28T13:13:26.953Z,16.60
2022-07-28T13:16:15.195Z,17.40
2022-07-28T13:18:44.764Z,17.58
2022-07-28T13:21:12.066Z,16.33
2022-07-28T13:23:39.272Z,16.93
2022-07-28T13:26:07.094Z,16.22
2022-07-28T13:28:34.774Z,15.51
2022-07-28T13:31:01.929Z,15.15
2022-07-28T13:33:28.942Z,14.60
2022-07-28T13:35:56.160Z,15.01
2022-07-28T13:38:23.482Z,15.06
2022-07-28T13:40:50.384Z,16.05
2022-07-28T13:43:17.308Z,15.56
2022-07-28T13:45:44.255Z,15.32
2022-07-28T13:48:11.543Z,15.30
2022-07-28T13:50:38.794Z,15.72
2022-07-28T13:53:06.499Z,15.41
2022-07-28T13:55:33.380Z,14.93
2022-07-28T13:58:00.626Z,15.22
2022-07-28T14:00:28.806Z,15.23
2022-07-28T14:02:56.534Z,15.81
2022-07-28T14:05:24.772Z,15.43
2022-07-28T14:08:00.077Z,15.58
2022-07-28T14:10:27.740Z,16.63
2022-07-28T14:12:54.887Z,16.52
2022-07-28T14:15:21.967Z,16.40
2022-07-28T14:17:49.668Z,17.83
2022-07-28T14:20:16.787Z,17.68
2022-07-28T14:22:46.518Z,17.98
2022-07-28T14:25:20.918Z,17.59
2022-07-28T14:27:49.611Z,17.20
2022-07-28T14:30:17.303Z,16.19
2022-07-28T14:32:44.143Z,16.33
2022-07-28T14:35:11.158Z,16.36
2022-07-28T14:38:23.180Z,15.93
2022-07-28T14:40:25.437Z,16.24
2022-07-28T14:42:52.389Z,15.99
2022-07-28T14:45:19.479Z,16.42
2022-07-28T14:47:46.371Z,15.46
2022-07-28T14:50:13.668Z,16.15
2022-07-28T14:52:40.642Z,16.82
2022-07-28T14:55:12.348Z,16.75
2022-07-28T14:57:48.427Z,17.33
2022-07-28T15:00:20.203Z,18.48
2022-07-28T15:02:47.935Z,20.12
2022-07-28T15:05:15.189Z,20.98
2022-07-28T15:07:42.532Z,21.71
2022-07-28T15:10:10.648Z,22.39
2022-07-28T15:12:37.897Z,23.10
2022-07-28T15:15:05.501Z,23.49
2022-07-28T15:17:32.762Z,23.40
2022-07-28T15:19:59.770Z,23.91
2022-07-28T15:22:26.775Z,23.94
2022-07-28T15:24:53.788Z,24.20
2022-07-28T15:27:20.855Z,24.25
2022-07-28T15:29:52.190Z,24.65
2022-07-28T15:32:24.378Z,25.48
2022-07-28T15:34:55.742Z,24.65
2022-07-28T15:37:23.225Z,24.62
2022-07-28T15:39:50.574Z,24.71
2022-07-28T15:42:17.833Z,24.49
2022-07-28T15:44:44.738Z,24.84
2022-07-28T15:47:11.664Z,24.62
2022-07-28T15:49:39.988Z,24.09
2022-07-28T15:52:06.916Z,24.09
2022-07-28T15:54:33.795Z,24.10
2022-07-28T15:57:00.781Z,24.21
2022-07-28T15:59:49.495Z,24.03
2022-07-28T16:02:17.463Z,24.23
2022-07-28T16:04:52.146Z,24.63
2022-07-28T16:07:28.456Z,24.87
2022-07-28T16:09:56.173Z,24.80
2022-07-28T16:12:27.443Z,24.90
2022-07-28T16:14:54.307Z,25.68
2022-07-28T16:17:24.645Z,25.56
2022-07-28T16:19:52.182Z,25.84
2022-07-28T16:22:20.280Z,26.21
2022-07-28T16:24:48.083Z,26.42
2022-07-28T16:27:15.252Z,27.25
2022-07-28T16:29:42.893Z,27.33
2022-07-28T16:32:10.485Z,27.89
2022-07-28T16:34:37.454Z,27.31
2022-07-28T16:37:05.788Z,27.19
2022-07-28T16:39:34.532Z,27.23
2022-07-28T16:42:01.774Z,27.04
2022-07-28T16:44:28.781Z,26.55
2022-07-28T16:46:56.029Z,26.49
2022-07-28T16:49:24.071Z,26.31
2022-07-28T16:51:51.173Z,26.11
2022-07-28T16:54:18.527Z,26.28
2022-07-28T16:56:45.964Z,26.22
2022-07-28T16:59:13.234Z,26.68
2022-07-28T17:01:45.628Z,26.62
2022-07-28T17:04:14.343Z,26.75
2022-07-28T17:06:41.807Z,26.83
2022-07-28T17:09:08.768Z,26.58
2022-07-28T17:11:35.861Z,26.55
2022-07-28T17:14:03.446Z,26.51
2022-07-28T17:16:30.926Z,27.01
2022-07-28T17:18:58.056Z,27.31
2022-07-28T17:21:25.801Z,27.58
2022-07-28T17:23:53.434Z,27.88
2022-07-28T17:29:08.931Z,28.13
2022-07-28T17:31:36.540Z,28.43
2022-07-28T17:34:03.512Z,28.30
2022-07-28T17:36:34.070Z,29.07
2022-07-28T17:39:01.498Z,29.29
2022-07-28T17:41:29.084Z,29.45
2022-07-28T17:43:56.080Z,29.54
2022-07-28T17:46:23.060Z,29.51
2022-07-28T17:48:53.965Z,30.46
2022-07-28T17:51:21.113Z,31.00
2022-07-28T17:53:48.952Z,32.32
2022-07-28T17:56:17.182Z,32.87
2022-07-28T17:58:45.403Z,33.28
2022-07-28T18:01:15.262Z,34.06
2022-07-28T18:03:56.547Z,34.63
2022-07-28T18:06:34.671Z,34.87
2022-07-28T18:09:08.721Z,35.50
2022-07-28T18:11:43.385Z,35.90
2022-07-28T18:14:24.303Z,36.86
2022-07-28T18:16:51.161Z,37.49
2022-07-28T18:19:18.137Z,37.89
2022-07-28T18:21:45.015Z,39.15
2022-07-28T18:24:12.067Z,39.62
2022-07-28T18:26:39.054Z,40.57
2022-07-28T18:29:06.073Z,40.59
2022-07-28T18:31:33.091Z,41.29
2022-07-28T18:34:00.144Z,41.46
2022-07-28T18:36:27.000Z,42.02
2022-07-28T18:38:53.882Z,42.32
2022-07-28T18:41:20.825Z,42.30
2022-07-28T18:43:47.733Z,42.40
2022-07-28T18:46:14.710Z,42.19
2022-07-28T18:48:41.659Z,42.17
2022-07-28T18:51:08.908Z,41.92
2022-07-28T18:53:36.468Z,41.78
2022-07-28T18:56:03.644Z,41.81
2022-07-28T18:58:30.495Z,41.96
2022-07-28T19:00:57.352Z,42.18
2022-07-28T19:03:24.689Z,42.45
2022-07-28T19:05:53.764Z,42.70
2022-07-28T19:08:21.421Z,42.81
2022-07-28T19:10:48.435Z,43.19
2022-07-28T19:13:15.463Z,43.81
2022-07-28T19:15:42.467Z,44.05
2022-07-28T19:18:11.133Z,44.45
2022-07-28T19:20:41.180Z,45.75
2022-07-28T19:23:08.036Z,45.35
2022-07-28T19:25:36.435Z,45.21
2022-07-28T19:28:04.593Z,45.59
2022-07-28T19:30:32.387Z,45.76
2022-07-28T19:32:59.688Z,45.83
2022-07-28T19:35:26.651Z,45.87
2022-07-28T19:37:55.451Z,46.02
2022-07-28T19:40:25.325Z,46.01
2022-07-28T19:42:53.565Z,45.94
2022-07-28T19:45:20.692Z,45.67
2022-07-28T19:47:49.835Z,45.64
2022-07-28T19:50:17.383Z,46.06
2022-07-28T19:52:44.307Z,46.28
2022-07-28T19:55:11.565Z,46.55
2022-07-28T19:57:42.300Z,46.81
2022-07-28T20:00:10.359Z,46.82
2022-07-28T20:02:37.949Z,46.93
2022-07-28T20:05:06.121Z,47.04
2022-07-28T20:07:33.122Z,46.94
2022-07-28T20:10:01.012Z,47.04
2022-07-28T20:12:32.822Z,47.01
2022-07-28T20:15:04.094Z,46.79
2022-07-28T20:17:38.563Z,46.83
2022-07-28T20:20:11.982Z,47.01
2022-07-28T20:22:41.181Z,47.52
2022-07-28T20:25:09.918Z,47.55
2022-07-28T20:27:40.181Z,47.95
2022-07-28T20:30:09.862Z,48.38
2022-07-28T20:32:38.004Z,49.04
2022-07-28T20:35:06.110Z,49.42
2022-07-28T20:37:37.178Z,49.92
2022-07-28T20:40:08.175Z,50.16
2022-07-28T20:42:35.771Z,49.95
2022-07-28T20:45:03.564Z,49.81
2022-07-28T20:47:33.872Z,49.72
2022-07-28T20:50:01.259Z,49.67
2022-07-28T20:52:28.212Z,49.94
2022-07-28T20:54:55.510Z,49.66
2022-07-28T20:57:23.052Z,49.42
2022-07-28T20:59:53.637Z,49.72
2022-07-28T21:02:21.345Z,50.13
2022-07-28T21:04:50.199Z,49.86
2022-07-28T21:08:00.391Z,49.83
2022-07-28T21:10:06.905Z,49.70
2022-07-28T21:12:35.063Z,49.89
2022-07-28T21:15:02.201Z,49.79
2022-07-28T21:17:29.715Z,49.63
2022-07-28T21:19:56.568Z,49.34
2022-07-28T21:22:23.753Z,49.19
2022-07-28T21:24:55.418Z,49.10
2022-07-28T21:27:23.485Z,48.97
2022-07-28T21:32:18.259Z,48.66
2022-07-28T21:34:45.328Z,48.02
2022-07-28T21:37:13.119Z,47.35
2022-07-28T21:39:40.590Z,46.43
2022-07-28T21:42:08.713Z,46.14
2022-07-28T21:44:36.777Z,46.14
2022-07-28T21:47:04.004Z,46.47
2022-07-28T21:49:31.452Z,45.96
2022-07-28T21:51:58.542Z,45.59
2022-07-28T21:54:25.501Z,45.68
2022-07-28T21:56:52.408Z,46.37
2022-07-28T21:59:19.368Z,46.44
2022-07-28T22:01:46.334Z,46.74
2022-07-28T22:04:13.686Z,47.40
2022-07-28T22:06:41.013Z,47.12
2022-07-28T22:09:14.622Z,47.42
2022-07-28T22:11:41.945Z,47.70
2022-07-28T22:14:08.981Z,47.79
2022-07-28T22:16:36.000Z,47.99
2022-07-28T22:19:03.861Z,48.21
2022-07-28T22:21:30.770Z,48.53
2022-07-28T22:23:57.664Z,48.58
2022-07-28T22:26:24.655Z,48.97
2022-07-28T22:28:51.486Z,49.07
2022-07-28T22:31:18.509Z,49.33
2022-07-28T22:33:45.414Z,49.82
2022-07-28T22:36:12.284Z,50.85
2022-07-28T22:38:39.228Z,50.26
2022-07-28T22:41:06.159Z,50.67
2022-07-28T22:43:34.270Z,50.71
2022-07-28T22:46:01.254Z,50.80
2022-07-28T22:48:28.621Z,51.54
2022-07-28T22:50:55.608Z,51.40
2022-07-28T22:53:22.584Z,51.75
2022-07-28T22:55:49.480Z,52.39
2022-07-28T22:58:16.732Z,52.65
2022-07-28T23:00:43.772Z,52.76
2022-07-28T23:03:13.446Z,52.90
2022-07-28T23:05:44.946Z,53.17
2022-07-28T23:08:11.874Z,53.15
2022-07-28T23:10:42.170Z,53.71
2022-07-28T23:13:09.122Z,53.59
2022-07-28T23:15:41.320Z,53.79
2022-07-28T23:18:11.394Z,53.44
2022-07-28T23:20:39.489Z,53.00
2022-07-28T23:23:07.252Z,53.03
2022-07-28T23:25:37.540Z,52.79
2022-07-28T23:28:04.613Z,52.95
2022-07-28T23:30:31.632Z,52.83
2022-07-28T23:32:58.493Z,52.79
2022-07-28T23:35:25.733Z,53.06
2022-07-28T23:37:52.656Z,53.43
2022-07-28T23:40:19.545Z,53.51
2022-07-28T23:42:46.414Z,53.92
2022-07-28T23:45:13.378Z,53.99
2022-07-28T23:47:40.668Z,54.07
2022-07-28T23:50:07.842Z,54.94
2022-07-28T23:52:34.777Z,55.09
2022-07-28T23:55:01.741Z,55.39
2022-07-28T23:57:31.404Z,55.38
2022-07-28T23:59:59.571Z,55.66
